createdAt,value
2018-06-22T00:00:49.879Z,98200.39
2018-06-22T00:03:19.505Z,98201.10
2018-06-22T00:05:49.494Z,98192.13
2018-06-22T00:08:19.015Z,98194.16
2018-06-22T00:10:48.430Z,98197.69
2018-06-22T00:13:18.667Z,98195.69
2018-06-22T00:15:48.154Z,98197.36
2018-06-22T00:18:17.780Z,98186.90
2018-06-22T00:20:47.290Z,98195.34
2018-06-22T00:23:16.876Z,98191.45
2018-06-22T00:25:46.474Z,98185.55
2018-06-22T00:28:16.447Z,98186.55
2018-06-22T00:30:45.952Z,98185.55
2018-06-22T00:33:15.461Z,98183.55
2018-06-22T00:35:44.846Z,98181.98
2018-06-22T00:38:14.431Z,98182.17
2018-06-22T00:40:43.861Z,98177.78
2018-06-22T00:43:13.311Z,98176.08
2018-06-22T00:45:42.991Z,98174.05
2018-06-22T00:48:13.110Z,98174.93
2018-06-22T00:50:42.831Z,98175.43
2018-06-22T00:53:23.337Z,98174.91
2018-06-22T00:55:52.919Z,98177.93
2018-06-22T00:58:22.405Z,98176.08
2018-06-22T01:00:52.406Z,98170.67
2018-06-22T01:03:22.161Z,98174.08
2018-06-22T01:05:52.058Z,98170.17
2018-06-22T01:08:21.586Z,98160.03
2018-06-22T01:10:51.195Z,98157.33
2018-06-22T01:13:20.783Z,98158.48
2018-06-22T01:15:50.589Z,98152.72
2018-06-22T01:18:20.131Z,98155.27
2018-06-22T01:20:49.582Z,98152.72
2018-06-22T01:23:19.570Z,98150.27
2018-06-22T01:25:49.161Z,98155.83
2018-06-22T01:28:18.721Z,98150.10
2018-06-22T01:30:48.602Z,98149.07
2018-06-22T01:33:18.160Z,98156.52
2018-06-22T01:35:47.735Z,98151.10
2018-06-22T01:38:17.814Z,98161.71
2018-06-22T01:40:47.512Z,98162.71
2018-06-22T01:43:16.921Z,98161.71
2018-06-22T01:45:46.549Z,98162.36
2018-06-22T01:48:16.179Z,98153.75
2018-06-22T01:50:45.697Z,98157.95
2018-06-22T01:53:15.367Z,98161.83
2018-06-22T01:55:44.864Z,98161.16
2018-06-22T01:58:14.436Z,98161.66
2018-06-22T02:00:44.073Z,98156.42
2018-06-22T02:03:14.769Z,98157.92
2018-06-22T02:05:44.801Z,98159.63
2018-06-22T02:08:14.275Z,98157.92
2018-06-22T02:10:43.782Z,98158.28
2018-06-22T02:13:13.764Z,98158.95
2018-06-22T02:15:43.243Z,98157.10
2018-06-22T02:18:12.769Z,98150.34
2018-06-22T02:20:42.811Z,98151.84
2018-06-22T02:23:12.322Z,98151.02
2018-06-22T02:25:41.817Z,98151.19
2018-06-22T02:28:11.795Z,98152.55
2018-06-22T02:30:41.370Z,98146.78
2018-06-22T02:33:10.907Z,98140.73
2018-06-22T02:35:40.590Z,98140.52
2018-06-22T02:38:10.443Z,98145.78
2018-06-22T02:40:39.927Z,98143.44
2018-06-22T02:43:09.932Z,98143.44
2018-06-22T02:45:45.263Z,98138.52
2018-06-22T02:48:14.832Z,98137.17
2018-06-22T02:50:44.290Z,98132.97
2018-06-22T02:53:14.186Z,98135.32
2018-06-22T02:55:43.572Z,98125.66
2018-06-22T02:58:13.034Z,98134.80
2018-06-22T03:00:42.660Z,98136.15
2018-06-22T03:03:12.316Z,98138.85
2018-06-22T03:05:41.768Z,98135.12
2018-06-22T03:08:11.757Z,98135.97
2018-06-22T03:10:41.246Z,98145.78
2018-06-22T03:13:10.709Z,98132.91
2018-06-22T03:15:40.306Z,98135.47
2018-06-22T03:18:09.949Z,98135.12
2018-06-22T03:20:39.392Z,98133.09
2018-06-22T03:23:09.643Z,98132.09
2018-06-22T03:25:39.332Z,98127.50
2018-06-22T03:28:09.288Z,98136.44
2018-06-22T03:30:39.209Z,98138.85
2018-06-22T03:33:08.668Z,98131.89
2018-06-22T03:35:38.234Z,98131.89
2018-06-22T03:38:07.601Z,98131.03
2018-06-22T03:40:37.721Z,98132.53
2018-06-22T03:43:07.145Z,98135.94
2018-06-22T03:45:36.687Z,98137.65
2018-06-22T03:48:06.547Z,98131.19
2018-06-22T03:50:36.072Z,98137.94
2018-06-22T03:53:05.516Z,98135.09
2018-06-22T03:55:35.026Z,98126.83
2018-06-22T03:58:04.501Z,98126.63
2018-06-22T04:00:34.448Z,98129.53
2018-06-22T04:03:04.042Z,98129.33
2018-06-22T04:05:33.698Z,98124.77
2018-06-22T04:08:03.647Z,98121.42
2018-06-22T04:10:34.114Z,98115.31
2018-06-22T04:13:08.705Z,98114.17
2018-06-22T04:15:38.591Z,98110.41
2018-06-22T04:18:08.520Z,98109.41
2018-06-22T04:20:38.011Z,98108.05
2018-06-22T04:23:07.686Z,98106.20
2018-06-22T04:25:37.753Z,98111.34
2018-06-22T04:28:08.003Z,98100.67
2018-06-22T04:30:37.880Z,98104.93
2018-06-22T04:33:07.789Z,98101.88
2018-06-22T04:35:37.465Z,98097.81
2018-06-22T04:38:07.397Z,98103.37
2018-06-22T04:40:37.321Z,98103.52
2018-06-22T04:43:07.173Z,98101.67
2018-06-22T04:45:36.873Z,98103.87
2018-06-22T04:48:06.899Z,98109.28
2018-06-22T04:50:36.993Z,98102.17
2018-06-22T04:53:06.511Z,98112.48
2018-06-22T04:55:36.473Z,98111.84
2018-06-22T04:58:06.020Z,98110.63
2018-06-22T05:00:35.857Z,98102.87
2018-06-22T05:03:05.305Z,98102.38
2018-06-22T05:05:34.879Z,98104.08
2018-06-22T05:08:04.366Z,98107.28
2018-06-22T05:10:33.883Z,98099.52
2018-06-22T05:13:03.542Z,98108.63
2018-06-22T05:15:33.017Z,98111.84
2018-06-22T05:18:03.657Z,98123.86
2018-06-22T05:20:33.110Z,98137.88
2018-06-22T05:23:02.721Z,98123.16
2018-06-22T05:25:46.295Z,98129.77
2018-06-22T05:28:18.817Z,98138.08
2018-06-22T05:30:48.219Z,98140.08
2018-06-22T05:33:18.173Z,98126.91
2018-06-22T05:35:47.768Z,98131.67
2018-06-22T05:38:17.371Z,98125.56
2018-06-22T05:40:47.016Z,98123.56
2018-06-22T05:43:17.607Z,98123.38
2018-06-22T05:45:47.218Z,98138.58
2018-06-22T05:48:18.575Z,98125.91
2018-06-22T05:50:49.951Z,98131.97
2018-06-22T05:53:20.529Z,98141.78
2018-06-22T05:55:52.106Z,98143.84
2018-06-22T05:58:21.477Z,98146.86
2018-06-22T06:00:51.749Z,98143.86
2018-06-22T06:03:21.389Z,98147.80
2018-06-22T06:05:50.927Z,98137.19
2018-06-22T06:08:21.633Z,98139.89
2018-06-22T06:10:51.688Z,98143.45
2018-06-22T06:13:21.322Z,98144.80
2018-06-22T06:15:51.258Z,98141.59
2018-06-22T06:18:20.988Z,98154.63
2018-06-22T06:20:50.468Z,98153.09
2018-06-22T06:23:19.977Z,98150.38
2018-06-22T06:25:50.117Z,98153.59
2018-06-22T06:28:19.605Z,98145.98
2018-06-22T06:30:49.443Z,98155.30
2018-06-22T06:33:20.230Z,98153.94
2018-06-22T06:35:50.165Z,98149.23
2018-06-22T06:38:19.681Z,98153.29
2018-06-22T06:40:49.970Z,98159.76
2018-06-22T06:43:19.650Z,98158.26
2018-06-22T06:45:49.233Z,98163.67
2018-06-22T06:48:19.637Z,98155.38
2018-06-22T06:50:49.329Z,98179.22
2018-06-22T06:53:18.837Z,98154.70
2018-06-22T06:58:11.101Z,98163.81
2018-06-22T07:00:41.276Z,98163.31
2018-06-22T07:03:11.199Z,98160.61
2018-06-22T07:05:41.073Z,98165.17
2018-06-22T07:08:11.389Z,98170.08
2018-06-22T07:10:41.518Z,98166.02
2018-06-22T07:13:12.865Z,98171.43
2018-06-22T07:15:42.802Z,98184.60
2018-06-22T07:18:12.547Z,98178.19
2018-06-22T07:20:42.193Z,98182.25
2018-06-22T07:23:12.051Z,98187.66
2018-06-22T07:25:41.667Z,98189.01
2018-06-22T07:28:11.190Z,98188.31
2018-06-22T07:30:40.909Z,98203.19
2018-06-22T07:33:10.866Z,98201.13
2018-06-22T07:35:40.401Z,98211.45
2018-06-22T07:38:10.333Z,98216.50
2018-06-22T07:40:39.849Z,98220.56
2018-06-22T07:43:09.433Z,98221.20
2018-06-22T07:45:39.058Z,98218.18
2018-06-22T07:48:08.976Z,98226.82
2018-06-22T07:50:38.704Z,98230.88
2018-06-22T07:53:09.644Z,98232.20
2018-06-22T07:55:39.617Z,98229.80
2018-06-22T07:58:09.468Z,98235.70
2018-06-22T08:00:39.094Z,98242.72
2018-06-22T08:03:09.641Z,98243.81
2018-06-22T08:05:40.086Z,98238.76
2018-06-22T08:08:09.564Z,98234.11
2018-06-22T08:10:44.124Z,98247.77
2018-06-22T08:13:16.952Z,98243.67
2018-06-22T08:15:47.150Z,98246.38
2018-06-22T08:18:16.595Z,98254.48
2018-06-22T08:20:46.165Z,98254.48
2018-06-22T08:23:15.902Z,98255.48
2018-06-22T08:25:45.937Z,98254.74
2018-06-22T08:28:20.428Z,98256.36
2018-06-22T08:30:50.826Z,98262.97
2018-06-22T08:33:22.193Z,98263.41
2018-06-22T08:35:51.694Z,98267.08
2018-06-22T08:38:21.566Z,98270.16
2018-06-22T08:40:51.220Z,98275.72
2018-06-22T08:43:22.439Z,98270.37
2018-06-22T08:45:52.968Z,98278.20
2018-06-22T08:48:23.749Z,98278.02
2018-06-22T08:50:53.551Z,98278.87
2018-06-22T08:53:23.461Z,98283.03
2018-06-22T08:55:53.903Z,98279.68
2018-06-22T08:58:23.406Z,98274.12
2018-06-22T09:00:53.598Z,98276.86
2018-06-22T09:03:23.537Z,98279.06
2018-06-22T09:05:53.148Z,98276.57
2018-06-22T09:08:22.746Z,98278.95
2018-06-22T09:10:52.570Z,98280.66
2018-06-22T09:13:22.287Z,98283.30
2018-06-22T09:15:51.841Z,98283.52
2018-06-22T09:18:22.251Z,98280.81
2018-06-22T09:20:52.014Z,98266.30
2018-06-22T09:23:21.555Z,98268.56
2018-06-22T09:25:51.248Z,98272.27
2018-06-22T09:28:21.611Z,98280.89
2018-06-22T09:30:51.513Z,98283.80
2018-06-22T09:33:21.283Z,98274.48
2018-06-22T09:35:51.910Z,98258.72
2018-06-22T09:38:21.822Z,98271.89
2018-06-22T09:40:51.336Z,98276.48
2018-06-22T09:43:21.497Z,98280.39
2018-06-22T09:45:51.453Z,98276.04
2018-06-22T09:48:21.311Z,98274.69
2018-06-22T09:50:50.855Z,98286.51
2018-06-22T09:53:20.446Z,98291.42
2018-06-22T09:55:49.978Z,98275.89
2018-06-22T09:58:20.182Z,98278.59
2018-06-22T10:00:52.801Z,98278.63
2018-06-22T10:03:23.670Z,98283.23
2018-06-22T10:05:53.270Z,98281.76
2018-06-22T10:08:23.457Z,98293.84
2018-06-22T10:10:53.050Z,98287.61
2018-06-22T10:13:22.593Z,98287.75
2018-06-22T10:15:55.474Z,98286.80
2018-06-22T10:18:26.469Z,98285.97
2018-06-22T10:20:56.361Z,98281.89
2018-06-22T10:23:27.853Z,98280.98
2018-06-22T10:25:58.170Z,98288.94
2018-06-22T10:28:28.086Z,98289.23
2018-06-22T10:30:57.440Z,98298.35
2018-06-22T10:33:27.420Z,98300.91
2018-06-22T10:35:57.775Z,98298.91
2018-06-22T10:38:27.421Z,98288.66
2018-06-22T10:40:57.085Z,98296.36
2018-06-22T10:43:34.503Z,98286.98
2018-06-22T10:46:11.321Z,98291.16
2018-06-22T10:48:47.586Z,98289.79
2018-06-22T10:51:17.269Z,98296.35
2018-06-22T10:53:47.082Z,98301.06
2018-06-22T10:56:17.370Z,98313.53
2018-06-22T10:58:47.093Z,98312.19
2018-06-22T11:01:18.156Z,98318.95
2018-06-22T11:03:47.853Z,98327.92
2018-06-22T11:06:17.497Z,98327.77
2018-06-22T11:08:48.525Z,98328.19
2018-06-22T11:11:18.122Z,98326.86
2018-06-22T11:13:48.108Z,98327.27
2018-06-22T11:16:18.127Z,98318.46
2018-06-22T11:18:48.207Z,98320.22
2018-06-22T11:21:17.808Z,98323.64
2018-06-22T11:23:48.667Z,98319.08
2018-06-22T11:26:18.675Z,98320.58
2018-06-22T11:28:49.246Z,98319.58
2018-06-22T11:31:18.943Z,98319.24
2018-06-22T11:33:48.534Z,98311.52
2018-06-22T11:36:18.132Z,98310.17
2018-06-22T11:38:48.281Z,98311.67
2018-06-22T11:41:19.405Z,98311.19
2018-06-22T11:43:49.042Z,98309.67
2018-06-22T11:46:19.042Z,98322.66
2018-06-22T11:48:48.647Z,98321.36
2018-06-22T11:51:18.207Z,98315.61
2018-06-22T11:53:48.604Z,98322.73
2018-06-22T11:56:18.114Z,98317.96
2018-06-22T11:58:48.194Z,98319.67
2018-06-22T12:01:20.908Z,98319.07
2018-06-22T12:03:52.532Z,98307.38
2018-06-22T12:06:22.260Z,98307.88
2018-06-22T12:08:52.404Z,98307.03
2018-06-22T12:11:22.506Z,98305.34
2018-06-22T12:13:52.842Z,98318.23
2018-06-22T12:16:22.486Z,98304.19
2018-06-22T12:18:52.258Z,98312.67
2018-06-22T12:21:22.033Z,98307.33
2018-06-22T12:23:51.503Z,98305.55
2018-06-22T12:26:21.367Z,98304.83
2018-06-22T12:28:51.226Z,98309.23
2018-06-22T12:31:21.979Z,98313.59
2018-06-22T12:33:53.122Z,98311.05
2018-06-22T12:36:27.877Z,98321.38
2018-06-22T12:38:57.483Z,98322.73
2018-06-22T12:41:27.585Z,98321.17
2018-06-22T12:43:57.201Z,98325.73
2018-06-22T12:46:26.841Z,98324.56
2018-06-22T12:48:57.361Z,98324.86
2018-06-22T12:51:27.451Z,98330.73
2018-06-22T12:53:57.949Z,98340.89
2018-06-22T12:56:28.621Z,98337.47
2018-06-22T12:58:57.941Z,98340.83
2018-06-22T13:01:27.945Z,98334.70
2018-06-22T13:03:58.792Z,98335.39
2018-06-22T13:06:29.199Z,98333.13
2018-06-22T13:09:00.584Z,98332.92
2018-06-22T13:11:31.058Z,98332.25
2018-06-22T13:14:00.652Z,98329.54
2018-06-22T13:16:40.674Z,98327.48
2018-06-22T13:19:22.660Z,98328.98
2018-06-22T13:21:53.137Z,98326.92
2018-06-22T13:24:24.062Z,98321.30
2018-06-22T13:26:54.946Z,98320.62
2018-06-22T13:29:25.484Z,98326.05
2018-06-22T13:31:55.510Z,98329.25
2018-06-22T13:34:25.095Z,98336.19
2018-06-22T13:36:54.394Z,98341.72
2018-06-22T13:39:24.070Z,98341.33
2018-06-22T13:41:53.805Z,98342.23
2018-06-22T13:44:23.384Z,98342.73
2018-06-22T13:46:53.110Z,98340.22
2018-06-22T13:49:22.413Z,98343.53
2018-06-22T13:51:52.620Z,98349.79
2018-06-22T13:54:22.090Z,98340.39
2018-06-22T13:56:51.615Z,98347.13
2018-06-22T13:59:21.085Z,98349.11
2018-06-22T14:01:50.966Z,98355.52
2018-06-22T14:05:28.195Z,98358.81
2018-06-22T14:07:57.635Z,98365.14
2018-06-22T14:10:27.878Z,98356.20
2018-06-22T14:12:59.783Z,98360.82
2018-06-22T14:15:29.525Z,98357.64
2018-06-22T14:17:59.643Z,98354.49
2018-06-22T14:20:29.369Z,98358.91
2018-06-22T14:22:58.977Z,98356.99
2018-06-22T14:25:28.533Z,98357.64
2018-06-22T14:27:58.146Z,98363.05
2018-06-22T14:30:27.774Z,98367.53
2018-06-22T14:32:58.248Z,98365.55
2018-06-22T14:35:28.693Z,98367.28
2018-06-22T14:37:58.148Z,98361.42
2018-06-22T14:40:27.707Z,98355.86
2018-06-22T14:42:57.777Z,98348.26
2018-06-22T14:45:27.351Z,98356.29
2018-06-22T14:47:57.875Z,98352.58
2018-06-22T14:50:28.174Z,98358.25
2018-06-22T14:52:58.644Z,98355.06
2018-06-22T14:55:33.641Z,98357.67
2018-06-22T14:58:08.671Z,98354.48
2018-06-22T15:00:43.468Z,98354.66
2018-06-22T15:03:17.849Z,98349.74
2018-06-22T15:05:52.752Z,98348.98
2018-06-22T15:08:23.674Z,98349.83
2018-06-22T15:10:53.236Z,98353.89
2018-06-22T15:13:22.541Z,98351.33
2018-06-22T15:15:52.153Z,98361.02
2018-06-22T15:18:22.277Z,98354.74
2018-06-22T15:20:51.936Z,98356.41
2018-06-22T15:23:22.161Z,98359.83
2018-06-22T15:25:51.440Z,98351.41
2018-06-22T15:28:20.931Z,98352.82
2018-06-22T15:30:51.421Z,98356.52
2018-06-22T15:33:25.955Z,98361.89
2018-06-22T15:36:00.915Z,98354.77
2018-06-22T15:38:35.798Z,98360.53
2018-06-22T15:41:10.531Z,98363.44
2018-06-22T15:43:45.074Z,98359.23
2018-06-22T15:46:20.485Z,98363.66
2018-06-22T15:48:55.072Z,98356.44
2018-06-22T15:51:29.298Z,98363.71
2018-06-22T15:54:03.881Z,98368.28
2018-06-22T15:56:33.363Z,98364.56
2018-06-22T15:59:02.924Z,98367.95
2018-06-22T16:01:33.528Z,98370.00
2018-06-22T16:04:07.319Z,98361.22
2018-06-22T16:06:36.653Z,98362.92
2018-06-22T16:09:10.121Z,98376.64
2018-06-22T16:11:39.372Z,98365.13
2018-06-22T16:16:18.920Z,98369.85
2018-06-22T16:18:55.322Z,98366.34
2018-06-22T16:21:30.316Z,98364.80
2018-06-22T16:24:05.001Z,98369.56
2018-06-22T16:26:39.293Z,98365.34
2018-06-22T16:29:10.612Z,98365.20
2018-06-22T16:31:40.284Z,98360.63
2018-06-22T16:36:49.980Z,98367.41
2018-06-22T16:39:20.596Z,98365.05
2018-06-22T16:41:50.036Z,98372.47
2018-06-22T16:44:20.016Z,98371.77
2018-06-22T16:46:49.611Z,98377.84
2018-06-22T16:49:19.226Z,98384.97
2018-06-22T16:51:49.258Z,98379.89
2018-06-22T16:54:19.340Z,98377.33
2018-06-22T16:56:48.872Z,98380.39
2018-06-22T16:59:18.277Z,98378.00
2018-06-22T17:01:50.651Z,98379.95
2018-06-22T17:04:20.200Z,98384.45
2018-06-22T17:06:54.891Z,98386.13
2018-06-22T17:09:30.159Z,98386.80
2018-06-22T17:12:07.367Z,98379.46
2018-06-22T17:14:41.828Z,98383.53
2018-06-22T17:17:16.250Z,98378.11
2018-06-22T17:19:45.853Z,98375.20
2018-06-22T17:22:15.512Z,98374.88
2018-06-22T17:24:45.047Z,98374.34
2018-06-22T17:27:14.469Z,98374.88
2018-06-22T17:29:44.231Z,98377.74
2018-06-22T17:32:15.026Z,98375.53
2018-06-22T17:34:45.372Z,98373.12
2018-06-22T17:37:15.971Z,98376.99
2018-06-22T17:39:45.731Z,98375.82
2018-06-22T17:42:16.708Z,98380.70
2018-06-22T17:44:46.586Z,98376.32
2018-06-22T17:47:16.043Z,98382.75
2018-06-22T17:49:46.121Z,98382.59
2018-06-22T17:52:15.650Z,98383.42
2018-06-22T17:54:45.278Z,98386.31
2018-06-22T17:57:14.913Z,98383.95
2018-06-22T17:59:49.253Z,98383.41
2018-06-22T18:02:23.901Z,98385.91
2018-06-22T18:04:58.924Z,98391.48
2018-06-22T18:07:34.035Z,98394.52
2018-06-22T18:10:09.849Z,98390.96
2018-06-22T18:12:44.454Z,98401.95
2018-06-22T18:15:14.048Z,98400.89
2018-06-22T18:17:43.518Z,98406.14
2018-06-22T18:20:13.380Z,98407.30
2018-06-22T18:22:43.163Z,98405.38
2018-06-22T18:25:14.002Z,98413.31
2018-06-22T18:27:43.717Z,98409.07
2018-06-22T18:30:16.021Z,98417.84
2018-06-22T18:32:46.061Z,98417.97
2018-06-22T18:35:16.476Z,98421.17
2018-06-22T18:37:46.138Z,98410.98
2018-06-22T18:40:16.220Z,98415.91
2018-06-22T18:42:45.613Z,98423.17
2018-06-22T18:45:15.387Z,98425.21
2018-06-22T18:47:45.787Z,98424.50
2018-06-22T18:50:15.815Z,98422.94
2018-06-22T18:54:55.245Z,98419.03
2018-06-22T18:57:30.610Z,98419.15
2018-06-22T19:00:05.196Z,98431.63
2018-06-22T19:02:41.680Z,98429.56
2018-06-22T19:05:13.454Z,98436.52
2018-06-22T19:07:43.728Z,98435.31
2018-06-22T19:10:13.351Z,98438.16
2018-06-22T19:12:42.997Z,98440.52
2018-06-22T19:15:13.441Z,98438.59
2018-06-22T19:17:43.746Z,98442.34
2018-06-22T19:20:13.403Z,98444.55
2018-06-22T19:22:42.940Z,98443.84
2018-06-22T19:25:12.429Z,98447.19
2018-06-22T19:27:41.869Z,98452.75
2018-06-22T19:30:11.544Z,98453.89
2018-06-22T19:32:41.340Z,98453.22
2018-06-22T19:35:11.691Z,98454.72
2018-06-22T19:37:42.292Z,98454.00
2018-06-22T19:40:12.088Z,98462.77
2018-06-22T19:42:43.820Z,98461.55
2018-06-22T19:45:18.875Z,98467.65
2018-06-22T19:47:53.758Z,98473.20
2018-06-22T19:51:29.297Z,98475.20
2018-06-22T19:54:08.312Z,98477.69
2018-06-22T19:56:37.797Z,98477.52
2018-06-22T19:59:07.287Z,98481.22
2018-06-22T20:01:37.877Z,98487.27
2018-06-22T20:04:07.822Z,98487.05
2018-06-22T20:06:37.358Z,98489.22
2018-06-22T20:09:09.564Z,98488.02
2018-06-22T20:14:36.393Z,98495.70
2018-06-22T20:17:06.085Z,98495.84
2018-06-22T20:19:35.812Z,98491.95
2018-06-22T20:22:05.702Z,98496.66
2018-06-22T20:24:40.526Z,98487.47
2018-06-22T20:27:09.979Z,98490.48
2018-06-22T20:29:42.206Z,98494.33
2018-06-22T20:32:15.004Z,98487.06
2018-06-22T20:34:50.261Z,98490.77
2018-06-22T20:37:24.755Z,98494.75
2018-06-22T20:40:00.302Z,98491.69
2018-06-22T20:42:35.409Z,98490.65
2018-06-22T20:45:10.720Z,98498.27
2018-06-22T20:47:46.107Z,98500.25
2018-06-22T20:50:21.495Z,98499.50
2018-06-22T20:52:51.277Z,98507.27
2018-06-22T20:55:20.853Z,98502.70
2018-06-22T20:57:50.430Z,98508.12
2018-06-22T21:00:20.307Z,98510.10
2018-06-22T21:04:05.632Z,98514.66
2018-06-22T21:06:35.448Z,98515.69
2018-06-22T21:09:07.499Z,98520.02
2018-06-22T21:11:37.202Z,98520.16
2018-06-22T21:14:06.856Z,98521.46
2018-06-22T21:16:37.214Z,98519.03
2018-06-22T21:19:07.041Z,98518.31
2018-06-22T21:21:41.811Z,98527.42
2018-06-22T21:24:11.282Z,98525.84
2018-06-22T21:26:40.869Z,98525.84
2018-06-22T21:29:16.069Z,98521.47
2018-06-22T21:31:50.764Z,98526.16
2018-06-22T21:34:25.497Z,98528.14
2018-06-22T21:36:59.946Z,98527.15
2018-06-22T21:39:29.682Z,98534.18
2018-06-22T21:41:59.897Z,98531.28
2018-06-22T21:44:30.118Z,98537.02
2018-06-22T21:46:59.617Z,98543.72
2018-06-22T21:49:29.520Z,98530.98
2018-06-22T21:51:59.932Z,98536.38
2018-06-22T21:54:29.596Z,98538.73
2018-06-22T21:56:59.065Z,98533.48
2018-06-22T21:59:28.600Z,98541.23
2018-06-22T22:01:58.812Z,98533.13
2018-06-22T22:04:28.659Z,98543.09
2018-06-22T22:06:58.689Z,98542.59
2018-06-22T22:09:32.168Z,98534.75
2018-06-22T22:12:02.832Z,98542.00
2018-06-22T22:14:32.449Z,98540.30
2018-06-22T22:17:01.997Z,98537.23
2018-06-22T22:19:31.368Z,98538.09
2018-06-22T22:22:00.979Z,98539.58
2018-06-22T22:24:30.387Z,98538.09
2018-06-22T22:26:59.865Z,98542.64
2018-06-22T22:29:29.452Z,98536.88
2018-06-22T22:31:58.988Z,98538.03
2018-06-22T22:34:28.505Z,98542.94
2018-06-22T22:36:58.986Z,98544.06
2018-06-22T22:39:28.465Z,98540.64
2018-06-22T22:41:58.417Z,98536.45
2018-06-22T22:44:27.862Z,98537.22
2018-06-22T22:46:57.371Z,98536.36
2018-06-22T22:49:27.003Z,98531.95
2018-06-22T22:51:57.041Z,98538.70
2018-06-22T22:54:26.562Z,98535.67
2018-06-22T22:56:56.146Z,98538.02
2018-06-22T22:59:25.621Z,98530.41
2018-06-22T23:01:55.133Z,98532.39
2018-06-22T23:04:24.577Z,98532.75
2018-06-22T23:06:54.607Z,98523.78
2018-06-22T23:09:24.245Z,98516.18
2018-06-22T23:11:54.347Z,98525.05
2018-06-22T23:14:23.872Z,98524.78
2018-06-22T23:16:53.341Z,98523.42
2018-06-22T23:19:23.465Z,98515.09
2018-06-22T23:21:53.190Z,98520.63
2018-06-22T23:24:22.734Z,98521.00
2018-06-22T23:26:52.126Z,98518.66
2018-06-22T23:29:21.682Z,98518.30
2018-06-22T23:31:51.316Z,98521.98
2018-06-22T23:34:21.030Z,98520.31
2018-06-22T23:36:50.478Z,98525.55
2018-06-22T23:39:19.904Z,98518.46
2018-06-22T23:41:50.434Z,98517.44
2018-06-22T23:44:19.968Z,98518.66
2018-06-22T23:46:49.393Z,98511.91
2018-06-22T23:49:18.872Z,98505.28
2018-06-22T23:51:48.389Z,98515.32
2018-06-22T23:54:18.016Z,98507.84
2018-06-22T23:56:47.536Z,98507.22
2018-06-22T23:59:17.060Z,98505.02
